sensor_id;sensor_type;location;lat;lon;timestamp;P1;durP1;ratioP1;P2;durP2;ratioP2
67768;SDS011;54569;52.018;5.584;2024-01-15T00:01:41;2.92;;;0.90;;
67768;SDS011;54569;52.018;5.584;2024-01-15T00:04:08;4.68;;;0.90;;
67768;SDS011;54569;52.018;5.584;2024-01-15T00:06:34;4.72;;;0.82;;
67768;SDS011;54569;52.018;5.584;2024-01-15T00:08:59;6.10;;;1.48;;
67768;SDS011;54569;52.018;5.584;2024-01-15T00:11:25;3.03;;;1.10;;
67768;SDS011;54569;52.018;5.584;2024-01-15T00:13:51;4.50;;;1.33;;
67768;SDS011;54569;52.018;5.584;2024-01-15T00:16:17;6.00;;;1.20;;
67768;SDS011;54569;52.018;5.584;2024-01-15T00:18:43;4.90;;;1.00;;
67768;SDS011;54569;52.018;5.584;2024-01-15T00:21:09;4.80;;;1.00;;
67768;SDS011;54569;52.018;5.584;2024-01-15T00:23:35;6.43;;;1.30;;
67768;SDS011;54569;52.018;5.584;2024-01-15T00:26:00;6.85;;;1.50;;
67768;SDS011;54569;52.018;5.584;2024-01-15T00:28:26;4.80;;;1.10;;
67768;SDS011;54569;52.018;5.584;2024-01-15T00:30:52;4.18;;;0.77;;
67768;SDS011;54569;52.018;5.584;2024-01-15T00:33:18;5.47;;;1.23;;
67768;SDS011;54569;52.018;5.584;2024-01-15T00:35:43;5.45;;;1.02;;
67768;SDS011;54569;52.018;5.584;2024-01-15T00:38:09;8.23;;;1.42;;
67768;SDS011;54569;52.018;5.584;2024-01-15T00:40:35;5.50;;;2.05;;
67768;SDS011;54569;52.018;5.584;2024-01-15T00:43:01;6.15;;;2.22;;
67768;SDS011;54569;52.018;5.584;2024-01-15T00:45:27;8.60;;;2.22;;
67768;SDS011;54569;52.018;5.584;2024-01-15T00:47:53;9.55;;;3.28;;
67768;SDS011;54569;52.018;5.584;2024-01-15T00:50:21;6.78;;;2.55;;
67768;SDS011;54569;52.018;5.584;2024-01-15T00:52:47;7.30;;;2.50;;
67768;SDS011;54569;52.018;5.584;2024-01-15T00:55:13;11.27;;;2.45;;
67768;SDS011;54569;52.018;5.584;2024-01-15T00:57:39;10.15;;;3.08;;
67768;SDS011;54569;52.018;5.584;2024-01-15T01:00:05;8.43;;;1.65;;
67768;SDS011;54569;52.018;5.584;2024-01-15T01:02:31;7.85;;;1.48;;
67768;SDS011;54569;52.018;5.584;2024-01-15T01:04:57;3.67;;;1.10;;
67768;SDS011;54569;52.018;5.584;2024-01-15T01:07:23;5.22;;;1.30;;
67768;SDS011;54569;52.018;5.584;2024-01-15T01:09:49;5.85;;;0.82;;
67768;SDS011;54569;52.018;5.584;2024-01-15T01:12:16;5.30;;;1.40;;
67768;SDS011;54569;52.018;5.584;2024-01-15T01:14:42;6.07;;;0.98;;
67768;SDS011;54569;52.018;5.584;2024-01-15T01:17:07;5.32;;;0.90;;
67768;SDS011;54569;52.018;5.584;2024-01-15T01:19:33;6.22;;;1.10;;
67768;SDS011;54569;52.018;5.584;2024-01-15T01:21:59;6.75;;;1.30;;
67768;SDS011;54569;52.018;5.584;2024-01-15T01:24:24;3.13;;;0.90;;
67768;SDS011;54569;52.018;5.584;2024-01-15T01:26:50;5.75;;;1.05;;
67768;SDS011;54569;52.018;5.584;2024-01-15T01:29:16;4.95;;;0.93;;
67768;SDS011;54569;52.018;5.584;2024-01-15T01:31:42;6.00;;;0.98;;
67768;SDS011;54569;52.018;5.584;2024-01-15T01:34:09;8.73;;;1.27;;
67768;SDS011;54569;52.018;5.584;2024-01-15T01:36:35;6.75;;;1.38;;
67768;SDS011;54569;52.018;5.584;2024-01-15T01:39:01;6.63;;;1.08;;
67768;SDS011;54569;52.018;5.584;2024-01-15T01:41:26;1.95;;;1.10;;
67768;SDS011;54569;52.018;5.584;2024-01-15T01:43:52;5.32;;;1.10;;
67768;SDS011;54569;52.018;5.584;2024-01-15T01:46:18;4.97;;;1.08;;
67768;SDS011;54569;52.018;5.584;2024-01-15T01:48:44;4.78;;;1.33;;
67768;SDS011;54569;52.018;5.584;2024-01-15T01:51:09;7.28;;;1.17;;
67768;SDS011;54569;52.018;5.584;2024-01-15T01:53:36;6.03;;;0.95;;
67768;SDS011;54569;52.018;5.584;2024-01-15T01:56:03;7.30;;;0.93;;
67768;SDS011;54569;52.018;5.584;2024-01-15T01:58:30;3.72;;;0.77;;
67768;SDS011;54569;52.018;5.584;2024-01-15T02:00:57;5.63;;;1.00;;
67768;SDS011;54569;52.018;5.584;2024-01-15T02:03:24;7.85;;;1.30;;
67768;SDS011;54569;52.018;5.584;2024-01-15T02:05:51;6.10;;;1.40;;
67768;SDS011;54569;52.018;5.584;2024-01-15T02:08:18;9.00;;;1.60;;
67768;SDS011;54569;52.018;5.584;2024-01-15T02:10:45;9.88;;;2.47;;
67768;SDS011;54569;52.018;5.584;2024-01-15T02:13:11;11.88;;;2.13;;
67768;SDS011;54569;52.018;5.584;2024-01-15T02:15:36;9.48;;;1.77;;
67768;SDS011;54569;52.018;5.584;2024-01-15T02:18:03;6.68;;;1.80;;
67768;SDS011;54569;52.018;5.584;2024-01-15T02:20:31;7.43;;;2.42;;
67768;SDS011;54569;52.018;5.584;2024-01-15T02:25:32;14.00;;;2.72;;
67768;SDS011;54569;52.018;5.584;2024-01-15T02:27:58;5.47;;;1.38;;
67768;SDS011;54569;52.018;5.584;2024-01-15T02:30:24;3.08;;;1.15;;
67768;SDS011;54569;52.018;5.584;2024-01-15T02:32:51;6.75;;;1.00;;
67768;SDS011;54569;52.018;5.584;2024-01-15T02:35:17;6.68;;;0.90;;
67768;SDS011;54569;52.018;5.584;2024-01-15T02:37:43;8.10;;;1.50;;
67768;SDS011;54569;52.018;5.584;2024-01-15T02:40:09;7.10;;;1.52;;
67768;SDS011;54569;52.018;5.584;2024-01-15T02:42:35;3.75;;;0.93;;
67768;SDS011;54569;52.018;5.584;2024-01-15T02:45:00;4.50;;;1.13;;
67768;SDS011;54569;52.018;5.584;2024-01-15T02:47:26;3.55;;;0.85;;
67768;SDS011;54569;52.018;5.584;2024-01-15T02:49:52;6.57;;;1.38;;
67768;SDS011;54569;52.018;5.584;2024-01-15T02:52:17;5.07;;;1.02;;
67768;SDS011;54569;52.018;5.584;2024-01-15T02:54:43;5.70;;;1.25;;
67768;SDS011;54569;52.018;5.584;2024-01-15T02:57:09;9.43;;;1.38;;
67768;SDS011;54569;52.018;5.584;2024-01-15T02:59:34;3.92;;;0.95;;
67768;SDS011;54569;52.018;5.584;2024-01-15T03:02:00;2.60;;;0.70;;
67768;SDS011;54569;52.018;5.584;2024-01-15T03:04:26;5.85;;;0.85;;
67768;SDS011;54569;52.018;5.584;2024-01-15T03:06:52;4.18;;;0.57;;
67768;SDS011;54569;52.018;5.584;2024-01-15T03:09:17;4.07;;;0.60;;
67768;SDS011;54569;52.018;5.584;2024-01-15T03:11:43;2.15;;;0.45;;
67768;SDS011;54569;52.018;5.584;2024-01-15T03:14:09;3.80;;;0.98;;
67768;SDS011;54569;52.018;5.584;2024-01-15T03:16:34;3.15;;;0.85;;
67768;SDS011;54569;52.018;5.584;2024-01-15T03:19:00;4.60;;;1.15;;
67768;SDS011;54569;52.018;5.584;2024-01-15T03:21:26;3.92;;;1.33;;
67768;SDS011;54569;52.018;5.584;2024-01-15T03:23:52;2.92;;;1.00;;
67768;SDS011;54569;52.018;5.584;2024-01-15T03:26:18;4.72;;;0.50;;
67768;SDS011;54569;52.018;5.584;2024-01-15T03:28:44;7.40;;;0.90;;
67768;SDS011;54569;52.018;5.584;2024-01-15T03:31:09;5.68;;;1.27;;
67768;SDS011;54569;52.018;5.584;2024-01-15T03:33:35;5.03;;;0.70;;
67768;SDS011;54569;52.018;5.584;2024-01-15T03:36:01;3.85;;;0.95;;
67768;SDS011;54569;52.018;5.584;2024-01-15T03:38:28;7.78;;;1.60;;
67768;SDS011;54569;52.018;5.584;2024-01-15T03:40:54;3.97;;;1.40;;
67768;SDS011;54569;52.018;5.584;2024-01-15T03:43:19;5.78;;;1.67;;
67768;SDS011;54569;52.018;5.584;2024-01-15T03:45:45;5.05;;;1.08;;
67768;SDS011;54569;52.018;5.584;2024-01-15T03:48:11;5.15;;;1.00;;
67768;SDS011;54569;52.018;5.584;2024-01-15T03:50:37;6.13;;;0.95;;
67768;SDS011;54569;52.018;5.584;2024-01-15T03:53:03;5.88;;;1.08;;
67768;SDS011;54569;52.018;5.584;2024-01-15T03:55:28;6.38;;;1.00;;
67768;SDS011;54569;52.018;5.584;2024-01-15T03:57:54;2.78;;;1.33;;
67768;SDS011;54569;52.018;5.584;2024-01-15T04:00:20;2.92;;;0.60;;
67768;SDS011;54569;52.018;5.584;2024-01-15T04:02:46;6.00;;;0.80;;
67768;SDS011;54569;52.018;5.584;2024-01-15T04:05:11;7.03;;;0.98;;
67768;SDS011;54569;52.018;5.584;2024-01-15T04:07:37;3.50;;;0.60;;
67768;SDS011;54569;52.018;5.584;2024-01-15T04:10:03;1.73;;;0.70;;
67768;SDS011;54569;52.018;5.584;2024-01-15T04:12:29;2.53;;;0.73;;
67768;SDS011;54569;52.018;5.584;2024-01-15T04:14:54;2.72;;;0.55;;
67768;SDS011;54569;52.018;5.584;2024-01-15T04:17:20;5.75;;;0.85;;
67768;SDS011;54569;52.018;5.584;2024-01-15T04:19:46;5.88;;;0.88;;
67768;SDS011;54569;52.018;5.584;2024-01-15T04:22:13;4.40;;;0.63;;
67768;SDS011;54569;52.018;5.584;2024-01-15T04:24:39;5.40;;;0.93;;
67768;SDS011;54569;52.018;5.584;2024-01-15T04:27:05;4.55;;;0.85;;
67768;SDS011;54569;52.018;5.584;2024-01-15T04:29:31;3.72;;;0.70;;
67768;SDS011;54569;52.018;5.584;2024-01-15T04:31:57;4.68;;;0.80;;
67768;SDS011;54569;52.018;5.584;2024-01-15T04:34:23;2.50;;;1.33;;
67768;SDS011;54569;52.018;5.584;2024-01-15T04:36:49;3.20;;;1.85;;
67768;SDS011;54569;52.018;5.584;2024-01-15T04:39:14;4.00;;;1.58;;
67768;SDS011;54569;52.018;5.584;2024-01-15T04:41:40;10.18;;;2.70;;
67768;SDS011;54569;52.018;5.584;2024-01-15T04:44:06;8.20;;;2.70;;
67768;SDS011;54569;52.018;5.584;2024-01-15T04:46:31;5.30;;;1.13;;
67768;SDS011;54569;52.018;5.584;2024-01-15T04:48:57;2.35;;;0.77;;
67768;SDS011;54569;52.018;5.584;2024-01-15T04:51:23;7.22;;;0.68;;
67768;SDS011;54569;52.018;5.584;2024-01-15T04:53:48;5.68;;;0.73;;
67768;SDS011;54569;52.018;5.584;2024-01-15T04:56:14;4.75;;;0.90;;
67768;SDS011;54569;52.018;5.584;2024-01-15T04:58:40;5.18;;;1.23;;
67768;SDS011;54569;52.018;5.584;2024-01-15T05:01:07;4.50;;;1.30;;
67768;SDS011;54569;52.018;5.584;2024-01-15T05:03:33;8.82;;;1.65;;
67768;SDS011;54569;52.018;5.584;2024-01-15T05:05:59;5.30;;;0.80;;
67768;SDS011;54569;52.018;5.584;2024-01-15T05:08:25;4.22;;;0.65;;
67768;SDS011;54569;52.018;5.584;2024-01-15T05:10:50;3.00;;;1.00;;
67768;SDS011;54569;52.018;5.584;2024-01-15T05:13:16;5.10;;;1.60;;
67768;SDS011;54569;52.018;5.584;2024-01-15T05:15:42;3.72;;;1.05;;
67768;SDS011;54569;52.018;5.584;2024-01-15T05:18:08;5.43;;;2.10;;
67768;SDS011;54569;52.018;5.584;2024-01-15T05:20:33;7.43;;;2.58;;
67768;SDS011;54569;52.018;5.584;2024-01-15T05:22:59;7.63;;;2.35;;
67768;SDS011;54569;52.018;5.584;2024-01-15T05:25:25;6.00;;;1.80;;
67768;SDS011;54569;52.018;5.584;2024-01-15T05:27:51;3.15;;;1.33;;
67768;SDS011;54569;52.018;5.584;2024-01-15T05:30:17;4.03;;;2.05;;
67768;SDS011;54569;52.018;5.584;2024-01-15T05:32:42;3.20;;;1.25;;
67768;SDS011;54569;52.018;5.584;2024-01-15T05:35:08;5.05;;;1.83;;
67768;SDS011;54569;52.018;5.584;2024-01-15T05:37:34;5.15;;;1.70;;
67768;SDS011;54569;52.018;5.584;2024-01-15T05:40:00;5.97;;;1.83;;
67768;SDS011;54569;52.018;5.584;2024-01-15T05:42:25;5.70;;;2.03;;
67768;SDS011;54569;52.018;5.584;2024-01-15T05:44:51;6.40;;;1.83;;
67768;SDS011;54569;52.018;5.584;2024-01-15T05:47:17;3.30;;;1.40;;
67768;SDS011;54569;52.018;5.584;2024-01-15T05:49:43;3.83;;;2.05;;
67768;SDS011;54569;52.018;5.584;2024-01-15T05:52:09;5.15;;;1.70;;
67768;SDS011;54569;52.018;5.584;2024-01-15T05:54:35;5.43;;;1.40;;
67768;SDS011;54569;52.018;5.584;2024-01-15T05:57:01;4.70;;;1.27;;
67768;SDS011;54569;52.018;5.584;2024-01-15T05:59:26;5.43;;;1.70;;
67768;SDS011;54569;52.018;5.584;2024-01-15T06:01:53;2.65;;;0.90;;
67768;SDS011;54569;52.018;5.584;2024-01-15T06:04:19;4.28;;;1.63;;
67768;SDS011;54569;52.018;5.584;2024-01-15T06:06:44;3.03;;;0.82;;
67768;SDS011;54569;52.018;5.584;2024-01-15T06:09:10;4.38;;;1.23;;
67768;SDS011;54569;52.018;5.584;2024-01-15T06:11:36;3.67;;;1.05;;
67768;SDS011;54569;52.018;5.584;2024-01-15T06:14:02;4.10;;;1.15;;
67768;SDS011;54569;52.018;5.584;2024-01-15T06:16:28;1.42;;;0.80;;
67768;SDS011;54569;52.018;5.584;2024-01-15T06:18:54;1.83;;;1.42;;
67768;SDS011;54569;52.018;5.584;2024-01-15T06:21:19;2.92;;;0.90;;
67768;SDS011;54569;52.018;5.584;2024-01-15T06:23:45;2.25;;;0.80;;
67768;SDS011;54569;52.018;5.584;2024-01-15T06:26:11;7.60;;;1.73;;
67768;SDS011;54569;52.018;5.584;2024-01-15T06:28:38;4.28;;;0.93;;
67768;SDS011;54569;52.018;5.584;2024-01-15T06:31:03;3.63;;;1.02;;
67768;SDS011;54569;52.018;5.584;2024-01-15T06:33:30;3.50;;;1.30;;
67768;SDS011;54569;52.018;5.584;2024-01-15T06:35:56;4.07;;;1.35;;
67768;SDS011;54569;52.018;5.584;2024-01-15T06:38:22;2.35;;;1.23;;
67768;SDS011;54569;52.018;5.584;2024-01-15T06:40:48;2.92;;;1.27;;
67768;SDS011;54569;52.018;5.584;2024-01-15T06:43:14;5.25;;;2.45;;
67768;SDS011;54569;52.018;5.584;2024-01-15T06:45:45;4.70;;;1.80;;
67768;SDS011;54569;52.018;5.584;2024-01-15T06:48:11;2.05;;;1.20;;
67768;SDS011;54569;52.018;5.584;2024-01-15T06:50:42;4.43;;;1.98;;
67768;SDS011;54569;52.018;5.584;2024-01-15T06:53:08;2.72;;;1.40;;
67768;SDS011;54569;52.018;5.584;2024-01-15T06:55:33;2.83;;;1.40;;
67768;SDS011;54569;52.018;5.584;2024-01-15T06:57:59;2.85;;;1.40;;
67768;SDS011;54569;52.018;5.584;2024-01-15T07:00:25;2.97;;;1.65;;
67768;SDS011;54569;52.018;5.584;2024-01-15T07:02:52;4.53;;;2.40;;
67768;SDS011;54569;52.018;5.584;2024-01-15T07:05:19;3.60;;;2.00;;
67768;SDS011;54569;52.018;5.584;2024-01-15T07:07:46;3.40;;;1.95;;
67768;SDS011;54569;52.018;5.584;2024-01-15T07:10:12;2.60;;;1.55;;
67768;SDS011;54569;52.018;5.584;2024-01-15T07:12:38;3.47;;;2.50;;
67768;SDS011;54569;52.018;5.584;2024-01-15T07:15:07;4.03;;;2.42;;
67768;SDS011;54569;52.018;5.584;2024-01-15T07:17:33;4.47;;;2.80;;
67768;SDS011;54569;52.018;5.584;2024-01-15T07:19:59;3.25;;;2.55;;
67768;SDS011;54569;52.018;5.584;2024-01-15T07:22:25;4.47;;;3.03;;
67768;SDS011;54569;52.018;5.584;2024-01-15T07:24:51;3.70;;;2.00;;
67768;SDS011;54569;52.018;5.584;2024-01-15T07:27:16;1.23;;;1.13;;
67768;SDS011;54569;52.018;5.584;2024-01-15T07:29:42;1.52;;;1.42;;
67768;SDS011;54569;52.018;5.584;2024-01-15T07:32:08;2.28;;;1.38;;
67768;SDS011;54569;52.018;5.584;2024-01-15T07:34:34;1.50;;;1.40;;
67768;SDS011;54569;52.018;5.584;2024-01-15T07:37:00;2.90;;;2.05;;
67768;SDS011;54569;52.018;5.584;2024-01-15T07:39:25;2.90;;;1.90;;
67768;SDS011;54569;52.018;5.584;2024-01-15T07:41:51;3.25;;;1.65;;
67768;SDS011;54569;52.018;5.584;2024-01-15T07:44:17;2.22;;;2.05;;
67768;SDS011;54569;52.018;5.584;2024-01-15T07:46:46;2.35;;;2.15;;
67768;SDS011;54569;52.018;5.584;2024-01-15T07:49:13;2.17;;;1.55;;
67768;SDS011;54569;52.018;5.584;2024-01-15T07:51:39;2.30;;;1.42;;
67768;SDS011;54569;52.018;5.584;2024-01-15T07:54:09;3.08;;;1.58;;
67768;SDS011;54569;52.018;5.584;2024-01-15T07:56:52;2.60;;;1.80;;
67768;SDS011;54569;52.018;5.584;2024-01-15T07:59:22;2.85;;;1.90;;
67768;SDS011;54569;52.018;5.584;2024-01-15T08:01:48;4.13;;;2.17;;
67768;SDS011;54569;52.018;5.584;2024-01-15T08:04:14;5.60;;;1.73;;
67768;SDS011;54569;52.018;5.584;2024-01-15T08:06:40;3.25;;;1.88;;
67768;SDS011;54569;52.018;5.584;2024-01-15T08:09:05;1.50;;;1.30;;
67768;SDS011;54569;52.018;5.584;2024-01-15T08:11:31;3.15;;;1.55;;
67768;SDS011;54569;52.018;5.584;2024-01-15T08:13:57;2.65;;;1.70;;
67768;SDS011;54569;52.018;5.584;2024-01-15T08:16:22;3.85;;;1.48;;
67768;SDS011;54569;52.018;5.584;2024-01-15T08:18:50;2.22;;;1.95;;
67768;SDS011;54569;52.018;5.584;2024-01-15T08:21:16;2.45;;;1.85;;
67768;SDS011;54569;52.018;5.584;2024-01-15T08:23:42;2.33;;;2.10;;
67768;SDS011;54569;52.018;5.584;2024-01-15T08:26:07;7.63;;;2.20;;
67768;SDS011;54569;52.018;5.584;2024-01-15T08:28:34;2.63;;;2.42;;
67768;SDS011;54569;52.018;5.584;2024-01-15T08:31:00;5.03;;;2.97;;
67768;SDS011;54569;52.018;5.584;2024-01-15T08:33:25;8.00;;;3.28;;
67768;SDS011;54569;52.018;5.584;2024-01-15T08:35:51;3.78;;;2.70;;
67768;SDS011;54569;52.018;5.584;2024-01-15T08:38:18;3.75;;;2.42;;
67768;SDS011;54569;52.018;5.584;2024-01-15T08:40:44;3.38;;;2.10;;
67768;SDS011;54569;52.018;5.584;2024-01-15T08:43:10;4.07;;;2.20;;
67768;SDS011;54569;52.018;5.584;2024-01-15T08:45:35;4.65;;;2.10;;
67768;SDS011;54569;52.018;5.584;2024-01-15T08:48:01;6.55;;;2.00;;
67768;SDS011;54569;52.018;5.584;2024-01-15T08:50:27;3.63;;;2.03;;
67768;SDS011;54569;52.018;5.584;2024-01-15T08:52:53;3.65;;;1.80;;
67768;SDS011;54569;52.018;5.584;2024-01-15T08:55:19;2.92;;;2.10;;
67768;SDS011;54569;52.018;5.584;2024-01-15T08:57:47;4.05;;;2.05;;
67768;SDS011;54569;52.018;5.584;2024-01-15T09:00:13;3.90;;;1.92;;
67768;SDS011;54569;52.018;5.584;2024-01-15T09:02:40;2.08;;;1.88;;
67768;SDS011;54569;52.018;5.584;2024-01-15T09:05:05;4.05;;;2.00;;
67768;SDS011;54569;52.018;5.584;2024-01-15T09:07:32;4.00;;;2.22;;
67768;SDS011;54569;52.018;5.584;2024-01-15T09:09:57;4.80;;;1.98;;
67768;SDS011;54569;52.018;5.584;2024-01-15T09:12:24;5.03;;;1.95;;
67768;SDS011;54569;52.018;5.584;2024-01-15T09:14:51;3.97;;;2.35;;
67768;SDS011;54569;52.018;5.584;2024-01-15T09:17:17;3.22;;;1.95;;
67768;SDS011;54569;52.018;5.584;2024-01-15T09:19:43;6.13;;;3.30;;
67768;SDS011;54569;52.018;5.584;2024-01-15T09:22:09;3.88;;;3.28;;
67768;SDS011;54569;52.018;5.584;2024-01-15T09:24:35;5.95;;;2.28;;
67768;SDS011;54569;52.018;5.584;2024-01-15T09:27:01;6.15;;;3.55;;
67768;SDS011;54569;52.018;5.584;2024-01-15T09:29:27;2.35;;;1.60;;
67768;SDS011;54569;52.018;5.584;2024-01-15T09:31:53;5.40;;;1.38;;
67768;SDS011;54569;52.018;5.584;2024-01-15T09:34:20;3.65;;;1.33;;
67768;SDS011;54569;52.018;5.584;2024-01-15T09:36:47;6.82;;;3.33;;
67768;SDS011;54569;52.018;5.584;2024-01-15T09:39:14;3.03;;;2.70;;
67768;SDS011;54569;52.018;5.584;2024-01-15T09:41:40;7.78;;;4.13;;
67768;SDS011;54569;52.018;5.584;2024-01-15T09:44:07;4.15;;;1.90;;
67768;SDS011;54569;52.018;5.584;2024-01-15T09:46:33;2.03;;;1.73;;
67768;SDS011;54569;52.018;5.584;2024-01-15T09:49:00;4.60;;;2.85;;
67768;SDS011;54569;52.018;5.584;2024-01-15T09:51:28;1.83;;;1.63;;
67768;SDS011;54569;52.018;5.584;2024-01-15T09:53:57;2.15;;;1.90;;
67768;SDS011;54569;52.018;5.584;2024-01-15T09:56:23;4.80;;;2.83;;
67768;SDS011;54569;52.018;5.584;2024-01-15T09:58:49;2.60;;;1.83;;
67768;SDS011;54569;52.018;5.584;2024-01-15T10:01:17;3.38;;;2.22;;
67768;SDS011;54569;52.018;5.584;2024-01-15T10:03:46;3.17;;;2.03;;
67768;SDS011;54569;52.018;5.584;2024-01-15T10:06:15;4.15;;;2.13;;
67768;SDS011;54569;52.018;5.584;2024-01-15T10:08:48;5.30;;;2.70;;
67768;SDS011;54569;52.018;5.584;2024-01-15T10:11:14;4.57;;;1.52;;
67768;SDS011;54569;52.018;5.584;2024-01-15T10:13:43;3.30;;;1.13;;
67768;SDS011;54569;52.018;5.584;2024-01-15T10:16:09;2.95;;;2.15;;
67768;SDS011;54569;52.018;5.584;2024-01-15T10:18:35;2.90;;;2.10;;
67768;SDS011;54569;52.018;5.584;2024-01-15T10:21:11;3.05;;;1.40;;
67768;SDS011;54569;52.018;5.584;2024-01-15T10:23:37;2.88;;;1.00;;
67768;SDS011;54569;52.018;5.584;2024-01-15T10:26:03;4.40;;;1.70;;
67768;SDS011;54569;52.018;5.584;2024-01-15T10:28:29;4.38;;;1.73;;
67768;SDS011;54569;52.018;5.584;2024-01-15T10:30:56;3.75;;;2.13;;
67768;SDS011;54569;52.018;5.584;2024-01-15T10:33:24;3.50;;;2.45;;
67768;SDS011;54569;52.018;5.584;2024-01-15T10:35:51;4.85;;;2.60;;
67768;SDS011;54569;52.018;5.584;2024-01-15T10:38:20;3.38;;;2.20;;
67768;SDS011;54569;52.018;5.584;2024-01-15T10:40:53;7.82;;;2.72;;
67768;SDS011;54569;52.018;5.584;2024-01-15T10:43:19;5.25;;;2.03;;
67768;SDS011;54569;52.018;5.584;2024-01-15T10:45:46;3.03;;;2.08;;
67768;SDS011;54569;52.018;5.584;2024-01-15T10:48:12;3.40;;;1.10;;
67768;SDS011;54569;52.018;5.584;2024-01-15T10:50:39;2.05;;;1.20;;
67768;SDS011;54569;52.018;5.584;2024-01-15T10:53:05;3.90;;;1.33;;
67768;SDS011;54569;52.018;5.584;2024-01-15T10:55:33;3.50;;;1.33;;
67768;SDS011;54569;52.018;5.584;2024-01-15T10:58:01;6.15;;;1.45;;
67768;SDS011;54569;52.018;5.584;2024-01-15T11:00:28;4.00;;;1.15;;
67768;SDS011;54569;52.018;5.584;2024-01-15T11:02:55;1.52;;;0.93;;
67768;SDS011;54569;52.018;5.584;2024-01-15T11:05:23;3.42;;;1.50;;
67768;SDS011;54569;52.018;5.584;2024-01-15T11:07:50;5.10;;;1.20;;
67768;SDS011;54569;52.018;5.584;2024-01-15T11:13:14;2.40;;;1.40;;
67768;SDS011;54569;52.018;5.584;2024-01-15T11:15:56;4.75;;;2.20;;
67768;SDS011;54569;52.018;5.584;2024-01-15T11:18:31;2.53;;;1.10;;
67768;SDS011;54569;52.018;5.584;2024-01-15T11:28:58;4.43;;;1.27;;
67768;SDS011;54569;52.018;5.584;2024-01-15T11:34:09;2.38;;;0.93;;
67768;SDS011;54569;52.018;5.584;2024-01-15T11:41:58;3.28;;;1.23;;
67768;SDS011;54569;52.018;5.584;2024-01-15T11:44:25;4.72;;;1.10;;
67768;SDS011;54569;52.018;5.584;2024-01-15T11:47:01;4.72;;;1.05;;
67768;SDS011;54569;52.018;5.584;2024-01-15T11:52:36;3.30;;;0.90;;
67768;SDS011;54569;52.018;5.584;2024-01-15T11:57:40;2.80;;;1.10;;
67768;SDS011;54569;52.018;5.584;2024-01-15T12:00:09;4.28;;;1.00;;
67768;SDS011;54569;52.018;5.584;2024-01-15T12:02:40;4.93;;;0.98;;
67768;SDS011;54569;52.018;5.584;2024-01-15T12:05:09;4.53;;;0.90;;
67768;SDS011;54569;52.018;5.584;2024-01-15T12:07:40;3.08;;;0.90;;
67768;SDS011;54569;52.018;5.584;2024-01-15T12:10:14;4.40;;;1.27;;
67768;SDS011;54569;52.018;5.584;2024-01-15T12:17:52;2.15;;;0.77;;
67768;SDS011;54569;52.018;5.584;2024-01-15T12:20:19;3.38;;;0.88;;
67768;SDS011;54569;52.018;5.584;2024-01-15T12:22:45;4.07;;;0.80;;
67768;SDS011;54569;52.018;5.584;2024-01-15T12:25:11;4.53;;;0.70;;
67768;SDS011;54569;52.018;5.584;2024-01-15T12:27:37;1.08;;;0.60;;
67768;SDS011;54569;52.018;5.584;2024-01-15T12:30:03;3.92;;;0.80;;
67768;SDS011;54569;52.018;5.584;2024-01-15T12:32:29;4.18;;;0.70;;
67768;SDS011;54569;52.018;5.584;2024-01-15T12:34:55;1.70;;;0.70;;
67768;SDS011;54569;52.018;5.584;2024-01-15T12:37:21;2.13;;;0.63;;
67768;SDS011;54569;52.018;5.584;2024-01-15T12:39:47;2.47;;;1.20;;
67768;SDS011;54569;52.018;5.584;2024-01-15T12:42:16;1.67;;;0.82;;
67768;SDS011;54569;52.018;5.584;2024-01-15T12:44:45;3.10;;;0.90;;
67768;SDS011;54569;52.018;5.584;2024-01-15T12:47:11;2.92;;;0.80;;
67768;SDS011;54569;52.018;5.584;2024-01-15T12:49:38;2.17;;;0.77;;
67768;SDS011;54569;52.018;5.584;2024-01-15T12:52:07;5.72;;;1.55;;
67768;SDS011;54569;52.018;5.584;2024-01-15T12:54:34;4.38;;;1.23;;
67768;SDS011;54569;52.018;5.584;2024-01-15T12:57:00;4.07;;;0.70;;
67768;SDS011;54569;52.018;5.584;2024-01-15T12:59:25;3.70;;;0.77;;
67768;SDS011;54569;52.018;5.584;2024-01-15T13:01:51;1.75;;;0.68;;
67768;SDS011;54569;52.018;5.584;2024-01-15T13:04:26;1.25;;;0.65;;
67768;SDS011;54569;52.018;5.584;2024-01-15T13:06:52;1.77;;;0.60;;
67768;SDS011;54569;52.018;5.584;2024-01-15T13:09:18;2.92;;;0.60;;
67768;SDS011;54569;52.018;5.584;2024-01-15T13:11:44;2.63;;;1.17;;
67768;SDS011;54569;52.018;5.584;2024-01-15T13:14:10;3.50;;;1.08;;
67768;SDS011;54569;52.018;5.584;2024-01-15T13:16:36;4.88;;;0.80;;
67768;SDS011;54569;52.018;5.584;2024-01-15T13:19:02;4.28;;;1.02;;
67768;SDS011;54569;52.018;5.584;2024-01-15T13:21:29;1.38;;;0.70;;
67768;SDS011;54569;52.018;5.584;2024-01-15T13:23:55;2.13;;;1.00;;
67768;SDS011;54569;52.018;5.584;2024-01-15T13:26:21;3.42;;;0.80;;
67768;SDS011;54569;52.018;5.584;2024-01-15T13:28:47;2.85;;;1.00;;
67768;SDS011;54569;52.018;5.584;2024-01-15T13:31:13;3.38;;;0.90;;
67768;SDS011;54569;52.018;5.584;2024-01-15T13:33:39;2.88;;;0.80;;
67768;SDS011;54569;52.018;5.584;2024-01-15T13:36:05;3.70;;;1.10;;
67768;SDS011;54569;52.018;5.584;2024-01-15T13:38:36;6.25;;;1.13;;
67768;SDS011;54569;52.018;5.584;2024-01-15T13:41:03;1.70;;;0.75;;
67768;SDS011;54569;52.018;5.584;2024-01-15T13:43:29;4.00;;;0.90;;
67768;SDS011;54569;52.018;5.584;2024-01-15T13:45:56;3.25;;;1.00;;
67768;SDS011;54569;52.018;5.584;2024-01-15T13:48:22;3.58;;;1.00;;
67768;SDS011;54569;52.018;5.584;2024-01-15T13:50:48;7.80;;;1.23;;
67768;SDS011;54569;52.018;5.584;2024-01-15T13:53:16;4.80;;;1.45;;
67768;SDS011;54569;52.018;5.584;2024-01-15T13:55:41;6.47;;;1.23;;
67768;SDS011;54569;52.018;5.584;2024-01-15T13:58:07;3.08;;;0.90;;
67768;SDS011;54569;52.018;5.584;2024-01-15T14:00:33;5.18;;;1.52;;
67768;SDS011;54569;52.018;5.584;2024-01-15T14:02:58;2.42;;;1.23;;
67768;SDS011;54569;52.018;5.584;2024-01-15T14:05:24;3.13;;;0.70;;
67768;SDS011;54569;52.018;5.584;2024-01-15T14:07:50;2.83;;;0.95;;
67768;SDS011;54569;52.018;5.584;2024-01-15T14:10:16;5.25;;;0.95;;
67768;SDS011;54569;52.018;5.584;2024-01-15T14:12:42;4.38;;;1.20;;
67768;SDS011;54569;52.018;5.584;2024-01-15T14:15:08;2.55;;;1.38;;
67768;SDS011;54569;52.018;5.584;2024-01-15T14:17:34;3.17;;;1.00;;
67768;SDS011;54569;52.018;5.584;2024-01-15T14:20:00;2.40;;;0.73;;
67768;SDS011;54569;52.018;5.584;2024-01-15T14:22:26;3.72;;;1.35;;
67768;SDS011;54569;52.018;5.584;2024-01-15T14:24:51;6.15;;;3.15;;
67768;SDS011;54569;52.018;5.584;2024-01-15T14:27:17;3.75;;;1.63;;
67768;SDS011;54569;52.018;5.584;2024-01-15T14:29:43;2.53;;;1.67;;
67768;SDS011;54569;52.018;5.584;2024-01-15T14:32:09;5.53;;;1.83;;
67768;SDS011;54569;52.018;5.584;2024-01-15T14:34:35;3.97;;;1.08;;
67768;SDS011;54569;52.018;5.584;2024-01-15T14:37:02;3.05;;;1.00;;
67768;SDS011;54569;52.018;5.584;2024-01-15T14:39:28;5.85;;;1.20;;
67768;SDS011;54569;52.018;5.584;2024-01-15T14:41:54;1.98;;;0.93;;
67768;SDS011;54569;52.018;5.584;2024-01-15T14:44:19;8.75;;;1.73;;
67768;SDS011;54569;52.018;5.584;2024-01-15T14:46:46;7.47;;;1.02;;
67768;SDS011;54569;52.018;5.584;2024-01-15T14:49:12;7.45;;;1.35;;
67768;SDS011;54569;52.018;5.584;2024-01-15T14:51:37;8.98;;;1.17;;
67768;SDS011;54569;52.018;5.584;2024-01-15T14:54:03;6.13;;;1.52;;
67768;SDS011;54569;52.018;5.584;2024-01-15T14:56:29;7.00;;;1.42;;
67768;SDS011;54569;52.018;5.584;2024-01-15T14:58:55;5.28;;;1.35;;
67768;SDS011;54569;52.018;5.584;2024-01-15T15:01:20;7.05;;;1.52;;
67768;SDS011;54569;52.018;5.584;2024-01-15T15:03:48;5.53;;;1.30;;
67768;SDS011;54569;52.018;5.584;2024-01-15T15:06:13;7.68;;;1.13;;
67768;SDS011;54569;52.018;5.584;2024-01-15T15:08:39;7.75;;;1.30;;
67768;SDS011;54569;52.018;5.584;2024-01-15T15:11:06;7.97;;;2.00;;
67768;SDS011;54569;52.018;5.584;2024-01-15T15:13:31;13.45;;;5.53;;
67768;SDS011;54569;52.018;5.584;2024-01-15T15:15:57;8.77;;;6.05;;